This is the latest recevied weather packets stored in our database for station/object W1MDM-10. If no packets are shown the sender has not sent any weather packets the latest 10 day(s).
| Time | Temp. | Humidity | Pressure | Rain* | Wind** | Luminosity | Snow |
|---|---|---|---|---|---|---|---|
| 1787872546 | 29.44° C | 80% | 1010.8 hPa | 0 mm | - | - | - |
| 1787872246 | 29.44° C | 81% | 1010.8 hPa | 0 mm | - | - | - |
| 1787871946 | 28.89° C | 84% | 1010.7 hPa | 0 mm | - | - | - |
| 1787871647 | 28.33° C | 81% | 1010.5 hPa | 0 mm | - | - | - |
| 1787871347 | 28.33° C | 78% | 1010.3 hPa | 0.51 mm | - | - | - |
| 1787871046 | 27.78° C | 79% | 1010.2 hPa | 1.02 mm | - | - | - |
| 1787870746 | 27.78° C | 81% | 1010.3 hPa | 2.03 mm | - | - | - |
| 1787870447 | 27.78° C | 81% | 1010.2 hPa | 3.05 mm | - | - | - |
| 1787870147 | 27.22° C | 78% | 1010 hPa | 4.57 mm | - | - | - |
| 1787869847 | 27.22° C | 78% | 1010 hPa | 6.86 mm | - | - | - |
| 1787869547 | 26.67° C | 80% | 1010.1 hPa | 6.86 mm | - | - | - |
| 1787869247 | 26.67° C | 80% | 1010.1 hPa | 6.86 mm | - | - | - |
| 1787868947 | 26.11° C | 84% | 1010.1 hPa | 6.86 mm | - | - | - |
| 1787868647 | 26.11° C | 83% | 1010.2 hPa | 6.86 mm | - | - | - |
| 1787868347 | 26.11° C | 84% | 1010.3 hPa | 6.86 mm | - | - | - |
| 1787868047 | 26.11° C | 86% | 1010.7 hPa | 6.86 mm | - | - | - |
| 1787867747 | 26.11° C | 83% | 1011.3 hPa | 6.35 mm | - | - | - |
| 1787867449 | 26.67° C | 79% | 1012 hPa | 5.84 mm | - | - | - |
| 1787867147 | 27.78° C | 78% | 1012.2 hPa | 4.83 mm | - | - | - |
| 1787866847 | 29.44° C | 72% | 1012.2 hPa | 3.81 mm | - | - | - |
| 1787866547 | 33.33° C | 64% | 1012 hPa | 2.29 mm | - | - | - |
| 1787866247 | 37.78° C | 53% | 1011.7 hPa | 0 mm | - | - | - |
| 1787865947 | 40° C | 40% | 1011.6 hPa | 0 mm | - | - | - |
| 1787865647 | 40.56° C | 39% | 1010.9 hPa | 0 mm | - | - | - |
| 1787865347 | 41.11° C | 39% | 1010.7 hPa | 0 mm | - | - | - |
* Rain latest hour (hover to see other rain measurements)
** Current wind speed in m/s (hover to see current wind gust speed)